Time;durP1;ratioP1;P1;durP2;ratioP2;P2;SDS_P1;SDS_P2;PMS_P1;PMS_P2;Temp;Humidity;BMP_temperature;BMP_pressure;BME280_temperature;BME280_humidity;BME280_pressure;Samples;Min_cycle;Max_cycle;Signal;HPM_P1;HPM_P2
2022/03/23 00:01:40;;;;;;;1999.90;999.90;;;9.20;98.60;;;;;;5073799;28;21168;-69
2022/03/23 00:04:06;;;;;;;1999.90;999.90;;;9.30;97.60;;;;;;5073527;28;20638;-69
2022/03/23 00:06:33;;;;;;;1999.90;999.90;;;9.40;96.80;;;;;;5073648;28;20632;-69
2022/03/23 00:08:59;;;;;;;1999.90;999.90;;;9.40;99.80;;;;;;5073564;28;20285;-69
2022/03/23 00:11:25;;;;;;;1999.90;999.90;;;9.40;99.90;;;;;;5073384;28;20506;-69
2022/03/23 00:13:51;;;;;;;1999.90;999.90;;;9.40;99.90;;;;;;5073674;28;20405;-69
2022/03/23 00:16:17;;;;;;;1999.90;999.90;;;9.50;99.90;;;;;;5073365;28;20408;-69
2022/03/23 00:18:42;;;;;;;1999.90;999.90;;;9.50;99.90;;;;;;5073514;28;20579;-69
2022/03/23 00:21:08;;;;;;;1999.90;999.90;;;9.50;99.90;;;;;;5073347;28;20190;-69
2022/03/23 00:23:33;;;;;;;1999.90;999.90;;;9.50;99.90;;;;;;5073311;28;20166;-69
2022/03/23 00:25:59;;;;;;;1999.90;999.90;;;9.50;99.90;;;;;;5073156;28;20188;-69
2022/03/23 00:28:28;;;;;;;1999.90;999.90;;;9.50;99.90;;;;;;5073157;28;20666;-69
2022/03/23 00:30:54;;;;;;;1999.90;999.90;;;9.40;99.90;;;;;;5073194;28;20471;-69
2022/03/23 00:33:21;;;;;;;1999.90;999.90;;;9.30;99.90;;;;;;5073145;28;20442;-69
2022/03/23 00:35:48;;;;;;;1999.90;999.90;;;9.30;99.90;;;;;;5072835;28;20482;-69
2022/03/23 00:38:15;;;;;;;1999.90;999.90;;;9.20;99.90;;;;;;5073024;28;20401;-69
2022/03/23 00:40:41;;;;;;;1999.90;999.90;;;9.20;99.90;;;;;;5073033;28;20416;-69
2022/03/23 00:43:06;;;;;;;1999.90;999.90;;;9.10;99.90;;;;;;5073041;28;20404;-69
2022/03/23 00:45:32;;;;;;;1999.90;999.90;;;9.00;99.90;;;;;;5072668;28;20161;-69
2022/03/23 00:47:58;;;;;;;1999.90;999.90;;;8.90;99.90;;;;;;5072203;28;20193;-69
2022/03/23 00:50:24;;;;;;;1999.90;999.90;;;8.80;99.90;;;;;;5072797;28;20287;-69
2022/03/23 00:52:50;;;;;;;1999.90;999.90;;;8.70;99.90;;;;;;5072706;28;20185;-69
2022/03/23 00:55:16;;;;;;;1999.90;999.90;;;8.60;99.90;;;;;;5072580;28;20219;-69
2022/03/23 00:57:42;;;;;;;1999.90;999.90;;;8.60;99.90;;;;;;5072741;28;20461;-69
2022/03/23 01:00:12;;;;;;;1999.90;999.90;;;8.50;99.90;;;;;;5072687;28;20438;-69
2022/03/23 01:02:43;;;;;;;1999.90;999.90;;;8.40;99.90;;;;;;5072480;28;20465;-69
2022/03/23 01:05:09;;;;;;;1999.90;999.90;;;8.30;99.90;;;;;;5072497;28;20835;-69
2022/03/23 01:07:36;;;;;;;1999.90;999.90;;;8.40;99.90;;;;;;5072465;28;20916;-68
2022/03/23 01:10:03;;;;;;;1999.90;999.90;;;8.30;99.90;;;;;;5072394;28;20445;-69
2022/03/23 01:12:29;;;;;;;1999.90;999.90;;;8.20;99.90;;;;;;5072180;28;20451;-69
2022/03/23 01:14:55;;;;;;;1999.90;999.90;;;8.10;99.90;;;;;;5072157;28;20791;-69
2022/03/23 01:17:20;;;;;;;1999.90;999.90;;;8.10;99.90;;;;;;5072341;28;20231;-69
2022/03/23 01:19:46;;;;;;;1999.90;999.90;;;8.10;99.90;;;;;;5073559;28;20398;-69
2022/03/23 01:22:12;;;;;;;1999.90;999.90;;;8.00;99.90;;;;;;5076694;28;20208;-69
2022/03/23 01:24:37;;;;;;;1999.90;999.90;;;8.00;99.90;;;;;;5076127;28;20195;-70
2022/03/23 01:27:03;;;;;;;1999.90;999.90;;;7.90;99.90;;;;;;5076156;28;20636;-69
2022/03/23 01:29:30;;;;;;;1999.90;999.90;;;8.00;99.90;;;;;;5076101;28;20456;-68
2022/03/23 01:31:56;;;;;;;1999.90;999.90;;;7.90;99.90;;;;;;5076595;28;20187;-70
2022/03/23 01:34:22;;;;;;;1999.90;999.90;;;7.80;99.90;;;;;;5075317;28;20501;-69
2022/03/23 01:36:47;;;;;;;1999.90;999.90;;;7.80;99.90;;;;;;5075533;28;20760;-68
2022/03/23 01:39:13;;;;;;;1999.90;999.90;;;7.80;99.90;;;;;;5076164;28;20254;-69
2022/03/23 01:41:40;;;;;;;1999.90;999.90;;;7.80;99.90;;;;;;5077183;28;20198;-69
2022/03/23 01:44:24;;;;;;;1999.90;999.90;;;7.70;99.90;;;;;;5077067;28;20923;-69
2022/03/23 01:47:10;;;;;;;1999.90;999.90;;;7.70;99.90;;;;;;5077026;28;20407;-70
2022/03/23 01:49:38;;;;;;;1999.90;999.90;;;7.60;99.90;;;;;;5077532;28;20516;-69
2022/03/23 01:52:07;;;;;;;1999.90;999.90;;;7.60;99.90;;;;;;5077412;28;20419;-69
2022/03/23 01:54:33;;;;;;;1999.90;999.90;;;7.50;99.90;;;;;;5077351;28;20438;-69
2022/03/23 01:56:59;;;;;;;1999.90;999.90;;;7.40;99.90;;;;;;5077966;28;20451;-69
2022/03/23 01:59:26;;;;;;;1999.90;999.90;;;7.40;99.90;;;;;;5077749;28;20407;-70
2022/03/23 02:01:53;;;;;;;1999.90;999.90;;;7.40;99.90;;;;;;5076972;28;20450;-68
2022/03/23 02:04:19;;;;;;;1999.90;999.90;;;7.40;99.90;;;;;;5077276;28;20470;-69
2022/03/23 02:06:46;;;;;;;1999.90;999.90;;;7.40;99.90;;;;;;5077205;28;20422;-69
2022/03/23 02:09:12;;;;;;;1999.90;999.90;;;7.40;99.90;;;;;;5077785;28;20479;-68
2022/03/23 02:11:39;;;;;;;1999.90;999.90;;;7.50;99.90;;;;;;5076566;28;20973;-69
2022/03/23 02:14:05;;;;;;;1999.90;999.90;;;7.40;99.90;;;;;;5077478;28;20172;-69
2022/03/23 02:16:45;;;;;;;1999.90;999.90;;;7.40;99.90;;;;;;5075868;28;20429;-68
2022/03/23 02:19:13;;;;;;;1999.90;999.90;;;7.40;99.90;;;;;;5071751;28;20189;-68
2022/03/23 02:21:49;;;;;;;1999.90;999.90;;;7.40;99.90;;;;;;5071490;28;20463;-68
2022/03/23 02:24:16;;;;;;;1999.90;999.90;;;7.30;99.90;;;;;;5071363;28;20501;-68
2022/03/23 02:26:42;;;;;;;1999.90;999.90;;;7.20;99.90;;;;;;5071641;28;20825;-68
2022/03/23 02:29:09;;;;;;;1999.90;999.90;;;7.10;99.90;;;;;;5071550;28;20449;-68
2022/03/23 02:31:36;;;;;;;1999.90;999.90;;;7.00;99.90;;;;;;5071486;28;20846;-68
2022/03/23 02:34:03;;;;;;;1999.90;999.90;;;7.00;99.90;;;;;;5071274;28;20793;-69
2022/03/23 02:36:30;;;;;;;1999.90;999.90;;;7.00;99.90;;;;;;5071349;28;20436;-68
2022/03/23 02:38:55;;;;;;;1999.90;999.90;;;7.10;99.90;;;;;;5071453;28;20914;-68
2022/03/23 02:41:21;;;;;;;1999.90;999.90;;;7.20;99.90;;;;;;5071426;28;20433;-68
2022/03/23 02:43:47;;;;;;;1999.90;999.90;;;7.20;99.90;;;;;;5071513;28;20440;-69
2022/03/23 02:46:17;;;;;;;1999.90;999.90;;;7.30;99.90;;;;;;5071184;28;20649;-68
2022/03/23 02:48:44;;;;;;;1999.90;999.90;;;7.20;99.90;;;;;;5071281;28;20250;-68
2022/03/23 02:51:10;;;;;;;1999.90;999.90;;;7.20;99.90;;;;;;5071300;28;20421;-68
2022/03/23 03:02:21;;;;;;;1999.90;999.90;;;6.40;99.90;;;;;;5071288;28;20487;-68
2022/03/23 03:04:48;;;;;;;1999.90;999.90;;;6.30;99.90;;;;;;5074891;28;20413;-69
2022/03/23 03:07:14;;;;;;;1999.90;999.90;;;6.30;99.90;;;;;;5076384;28;20418;-69
2022/03/23 03:09:39;;;;;;;1999.90;999.90;;;6.40;99.90;;;;;;5076664;28;20453;-69
2022/03/23 03:12:07;;;;;;;1999.90;999.90;;;6.40;99.90;;;;;;5077831;28;20199;-69
2022/03/23 03:14:33;;;;;;;1999.90;999.90;;;6.10;99.90;;;;;;5079780;28;20179;-69
2022/03/23 03:16:59;;;;;;;1999.90;999.90;;;6.10;99.90;;;;;;5079401;28;20414;-70
2022/03/23 03:19:24;;;;;;;1999.90;999.90;;;6.20;99.90;;;;;;5080087;28;20860;-69
2022/03/23 03:21:50;;;;;;;1999.90;999.90;;;6.20;99.90;;;;;;5080890;28;20487;-69
2022/03/23 03:24:16;;;;;;;1999.90;999.90;;;6.40;99.90;;;;;;5081684;28;20178;-68
2022/03/23 03:26:41;;;;;;;1999.90;999.90;;;6.50;99.90;;;;;;5074120;28;20174;-69
2022/03/23 03:29:07;;;;;;;1999.90;999.90;;;6.50;99.90;;;;;;5079504;28;20245;-69
2022/03/23 03:31:32;;;;;;;1999.90;999.90;;;6.50;99.90;;;;;;5079441;28;20248;-69
2022/03/23 03:33:58;;;;;;;1999.90;999.90;;;6.60;99.90;;;;;;5079592;28;20286;-67
2022/03/23 03:36:24;;;;;;;1999.90;999.90;;;6.60;99.90;;;;;;5079359;28;20175;-69
2022/03/23 03:38:50;;;;;;;1999.90;999.90;;;6.60;99.90;;;;;;5079088;28;20175;-70
2022/03/23 03:41:16;;;;;;;1999.90;999.90;;;6.70;99.90;;;;;;5079698;28;20421;-70
2022/03/23 03:43:43;;;;;;;1999.90;999.90;;;6.70;99.90;;;;;;5073113;28;20437;-69
2022/03/23 03:46:10;;;;;;;1999.90;999.90;;;6.80;99.90;;;;;;5078814;28;20409;-68
2022/03/23 03:48:37;;;;;;;1999.90;999.90;;;6.80;99.90;;;;;;5078309;28;20412;-70
2022/03/23 03:51:03;;;;;;;1999.90;999.90;;;6.80;99.90;;;;;;5077980;28;20421;-69
2022/03/23 03:53:29;;;;;;;1999.90;999.90;;;6.80;99.90;;;;;;5078490;28;20413;-69
2022/03/23 03:55:55;;;;;;;1999.90;999.90;;;6.80;99.90;;;;;;5077613;28;20413;-70
2022/03/23 03:58:21;;;;;;;1999.90;999.90;;;6.80;99.90;;;;;;5077865;28;20186;-70
2022/03/23 04:00:46;;;;;;;1999.90;999.90;;;6.70;99.90;;;;;;5077923;28;20407;-69
2022/03/23 04:03:12;;;;;;;1999.90;999.90;;;6.50;99.90;;;;;;5078451;28;20177;-69
2022/03/23 04:05:38;;;;;;;1999.90;999.90;;;6.20;99.90;;;;;;5078165;28;20171;-70
2022/03/23 04:08:04;;;;;;;1999.90;999.90;;;6.00;99.90;;;;;;5078613;28;20220;-69
2022/03/23 04:10:30;;;;;;;1999.90;999.90;;;6.00;99.90;;;;;;5077633;28;20199;-69
2022/03/23 04:12:56;;;;;;;1999.90;999.90;;;5.90;99.90;;;;;;5077991;28;20467;-69
2022/03/23 04:15:24;;;;;;;1999.90;999.90;;;5.90;99.90;;;;;;5077656;28;20405;-69
2022/03/23 04:17:49;;;;;;;1999.90;999.90;;;5.90;99.90;;;;;;5078152;28;20444;-69
2022/03/23 04:20:15;;;;;;;1999.90;999.90;;;5.90;99.90;;;;;;5077996;28;20887;-69
2022/03/23 04:22:40;;;;;;;1999.90;999.90;;;5.80;99.90;;;;;;5077238;28;20747;-70
2022/03/23 04:25:12;;;;;;;1999.90;999.90;;;5.80;99.90;;;;;;5077358;28;20253;-69
2022/03/23 04:27:51;;;;;;;1999.90;999.90;;;5.80;99.90;;;;;;5078133;28;20266;-69
2022/03/23 04:30:19;;;;;;;1999.90;999.90;;;5.70;99.90;;;;;;5078011;28;20452;-69
2022/03/23 04:32:46;;;;;;;1999.90;999.90;;;5.60;99.90;;;;;;5077466;28;20803;-69
2022/03/23 04:35:12;;;;;;;1999.90;999.90;;;5.50;99.90;;;;;;5075744;28;20402;-69
2022/03/23 04:37:39;;;;;;;1999.90;999.90;;;5.40;99.90;;;;;;5068975;28;20774;-69
2022/03/23 04:40:07;;;;;;;1999.90;999.90;;;5.40;99.90;;;;;;5075678;28;20478;-70
2022/03/23 04:42:34;;;;;;;1999.90;999.90;;;5.40;99.90;;;;;;5075725;28;20440;-70
2022/03/23 04:45:00;;;;;;;1999.90;999.90;;;5.40;99.90;;;;;;5075864;28;20508;-70
2022/03/23 04:47:26;;;;;;;1999.90;999.90;;;5.40;99.90;;;;;;5075320;28;20417;-69
2022/03/23 04:49:51;;;;;;;1999.90;999.90;;;5.50;99.90;;;;;;5087081;28;20985;-70
2022/03/23 04:52:17;;;;;;;1999.90;999.90;;;5.40;99.90;;;;;;5074854;28;20230;-70
2022/03/23 04:54:45;;;;;;;1999.90;999.90;;;5.30;99.90;;;;;;5074681;28;20167;-70
2022/03/23 04:57:11;;;;;;;1999.90;999.90;;;5.20;99.90;;;;;;5074582;28;20182;-69
2022/03/23 04:59:37;;;;;;;1999.90;999.90;;;5.20;99.90;;;;;;5074907;28;20410;-69
2022/03/23 05:02:02;;;;;;;1999.90;999.90;;;5.20;99.90;;;;;;5074506;28;20194;-70
2022/03/23 05:04:28;;;;;;;1999.90;999.90;;;5.20;99.90;;;;;;5076419;28;20182;-69
2022/03/23 05:06:54;;;;;;;1999.90;999.90;;;5.20;99.90;;;;;;5076283;28;20405;-70
2022/03/23 05:09:19;;;;;;;1999.90;999.90;;;5.30;99.90;;;;;;5076751;28;20206;-69
2022/03/23 05:11:45;;;;;;;1999.90;999.90;;;5.40;99.90;;;;;;5076714;28;20203;-69
2022/03/23 05:14:10;;;;;;;1999.90;999.90;;;5.30;99.90;;;;;;5076790;28;20256;-68
2022/03/23 05:16:37;;;;;;;1999.90;999.90;;;5.30;99.90;;;;;;5086907;28;20170;-69
2022/03/23 05:19:03;;;;;;;1999.90;999.90;;;5.30;99.90;;;;;;5076631;28;20178;-69
2022/03/23 05:21:29;;;;;;;1999.90;999.90;;;5.40;99.90;;;;;;5076034;28;20427;-69
2022/03/23 05:23:55;;;;;;;1999.90;999.90;;;5.50;99.90;;;;;;5076484;28;20171;-67
2022/03/23 05:26:20;;;;;;;1999.90;999.90;;;5.50;99.90;;;;;;5076348;28;20404;-70
2022/03/23 05:28:46;;;;;;;1999.90;999.90;;;5.50;99.90;;;;;;5075922;28;20190;-69
2022/03/23 05:31:11;;;;;;;1999.90;999.90;;;5.40;99.90;;;;;;5073348;28;20191;-69
2022/03/23 05:33:37;;;;;;;1999.90;999.90;;;5.40;99.90;;;;;;5075373;28;20175;-69
2022/03/23 05:36:03;;;;;;;1999.90;999.90;;;5.40;99.90;;;;;;5074639;28;20159;-70
2022/03/23 05:38:28;;;;;;;1999.90;999.90;;;5.30;99.90;;;;;;5075425;28;20242;-70
2022/03/23 05:40:54;;;;;;;1999.90;999.90;;;5.30;99.90;;;;;;5075164;28;20220;-69
2022/03/23 05:43:20;;;;;;;1999.90;999.90;;;5.10;99.90;;;;;;5075462;28;20159;-69
2022/03/23 05:45:46;;;;;;;1999.90;999.90;;;5.00;99.90;;;;;;5074672;28;20636;-69
2022/03/23 05:48:11;;;;;;;1999.90;999.90;;;5.00;99.90;;;;;;5075439;28;20420;-69
2022/03/23 05:50:37;;;;;;;1999.90;999.90;;;5.00;99.90;;;;;;5074949;28;20194;-70
2022/03/23 05:53:03;;;;;;;1999.90;999.90;;;4.80;99.90;;;;;;5075829;28;20224;-69
2022/03/23 05:55:29;;;;;;;1999.90;999.90;;;4.80;99.90;;;;;;5075943;28;21140;-69
2022/03/23 05:57:55;;;;;;;1999.90;999.90;;;4.80;99.90;;;;;;5075864;28;20395;-70
2022/03/23 06:00:21;;;;;;;1999.90;999.90;;;4.90;99.90;;;;;;5076209;28;20401;-69
2022/03/23 06:02:47;;;;;;;1999.90;999.90;;;4.90;99.90;;;;;;5075289;28;20191;-69
2022/03/23 06:05:13;;;;;;;1999.90;999.90;;;5.10;99.90;;;;;;5075641;28;20228;-69
2022/03/23 06:07:39;;;;;;;1999.90;999.90;;;5.20;99.90;;;;;;5074945;28;20500;-70
2022/03/23 06:10:07;;;;;;;1999.90;999.90;;;5.20;99.90;;;;;;5075366;28;20480;-69
2022/03/23 06:12:33;;;;;;;1999.90;999.90;;;5.30;99.90;;;;;;5074978;28;20817;-69
2022/03/23 06:14:59;;;;;;;1999.90;999.90;;;5.30;99.90;;;;;;5074285;28;20405;-69
2022/03/23 06:17:25;;;;;;;1999.90;999.90;;;5.40;99.90;;;;;;5075685;28;20793;-69
2022/03/23 06:19:50;;;;;;;1999.90;999.90;;;5.50;99.90;;;;;;5075302;28;20409;-69
2022/03/23 06:22:16;;;;;;;1999.90;999.90;;;5.50;99.90;;;;;;5075188;28;20270;-69
2022/03/23 06:24:41;;;;;;;1999.90;999.90;;;5.50;99.90;;;;;;5074831;28;20175;-70
2022/03/23 06:27:07;;;;;;;1999.90;999.90;;;5.60;99.90;;;;;;5075112;28;20174;-69
2022/03/23 06:29:33;;;;;;;1999.90;999.90;;;5.70;99.90;;;;;;5068861;28;20269;-69
2022/03/23 06:31:58;;;;;;;1999.90;999.90;;;5.80;99.90;;;;;;5076058;28;20187;-69
2022/03/23 06:34:24;;;;;;;1999.90;999.90;;;5.70;99.90;;;;;;5075971;28;20180;-69
2022/03/23 06:36:50;;;;;;;1999.90;999.90;;;5.80;99.90;;;;;;5076088;28;20166;-69
2022/03/23 06:39:15;;;;;;;1999.90;999.90;;;5.70;99.90;;;;;;5075851;28;20639;-69
2022/03/23 06:41:41;;;;;;;1999.90;999.90;;;5.80;99.90;;;;;;5076354;28;20272;-69
2022/03/23 06:44:06;;;;;;;1999.90;999.90;;;5.90;99.90;;;;;;5076852;28;20177;-69
2022/03/23 06:46:32;;;;;;;1999.90;999.90;;;5.90;99.90;;;;;;5076924;28;20205;-69
2022/03/23 06:48:58;;;;;;;1999.90;999.90;;;5.90;99.90;;;;;;5079449;28;20213;-69
2022/03/23 06:51:23;;;;;;;1999.90;999.90;;;6.00;99.90;;;;;;5079362;28;20187;-69
2022/03/23 06:53:49;;;;;;;1999.90;999.90;;;6.10;99.90;;;;;;5080034;28;20167;-69
2022/03/23 06:56:14;;;;;;;1999.90;999.90;;;6.10;99.90;;;;;;5079327;28;20555;-69
2022/03/23 06:58:40;;;;;;;1999.90;999.90;;;6.20;99.90;;;;;;5079088;28;20164;-69
2022/03/23 07:01:06;;;;;;;1999.90;999.90;;;6.30;99.90;;;;;;5078587;28;20183;-69
2022/03/23 07:03:31;;;;;;;1999.90;999.90;;;6.30;99.90;;;;;;5078908;28;20166;-70
2022/03/23 07:05:57;;;;;;;1999.90;999.90;;;6.40;99.90;;;;;;5078026;28;20194;-69
2022/03/23 07:11:07;;;;;;;1999.90;999.90;;;6.60;99.90;;;;;;5078217;28;20286;-69
2022/03/23 07:13:32;;;;;;;1999.90;999.90;;;6.60;99.90;;;;;;5078322;28;20421;-69
2022/03/23 07:15:58;;;;;;;1999.90;999.90;;;6.70;99.90;;;;;;5078265;28;20174;-69
2022/03/23 07:18:24;;;;;;;1999.90;999.90;;;6.90;99.90;;;;;;5078316;28;20171;-69
2022/03/23 07:20:49;;;;;;;1999.90;999.90;;;7.00;99.90;;;;;;5078784;28;20180;-69
2022/03/23 07:23:15;;;;;;;1999.90;999.90;;;7.10;99.90;;;;;;5078919;28;20481;-69
2022/03/23 07:25:41;;;;;;;1999.90;999.90;;;7.20;99.90;;;;;;5078074;28;20228;-69
2022/03/23 07:28:07;;;;;;;1999.90;999.90;;;7.20;99.90;;;;;;5078665;28;20398;-70
2022/03/23 07:30:37;;;;;;;1999.90;999.90;;;7.30;99.90;;;;;;5078868;28;20219;-69
2022/03/23 07:33:04;;;;;;;1999.90;999.90;;;7.50;99.90;;;;;;5078005;28;20178;-69
2022/03/23 07:35:30;;;;;;;1999.90;999.90;;;7.50;99.90;;;;;;5070764;28;20543;-70
2022/03/23 07:37:55;;;;;;;1999.90;999.90;;;7.70;99.90;;;;;;5078547;28;20407;-69
2022/03/23 07:40:21;;;;;;;1999.90;999.90;;;7.80;99.90;;;;;;5078677;28;20906;-69
2022/03/23 07:42:47;;;;;;;1999.90;999.90;;;7.90;99.90;;;;;;5077764;28;20191;-69
2022/03/23 07:45:13;;;;;;;1999.90;999.90;;;8.00;99.90;;;;;;5078316;28;20173;-69
2022/03/23 07:47:39;;;;;;;1999.90;999.90;;;8.10;99.90;;;;;;5078497;28;20171;-69
2022/03/23 07:50:06;;;;;;;1999.90;999.90;;;8.20;99.90;;;;;;5077538;28;20470;-69
2022/03/23 07:52:32;;;;;;;1999.90;999.90;;;8.40;99.90;;;;;;5078212;28;20670;-69
2022/03/23 07:54:57;;;;;;;1999.90;999.90;;;8.40;99.90;;;;;;5077314;28;20399;-69
2022/03/23 07:57:23;;;;;;;1999.90;999.90;;;8.60;99.90;;;;;;5077000;28;20169;-69
2022/03/23 07:59:48;;;;;;;1999.90;999.90;;;8.70;99.90;;;;;;5078012;28;20545;-69
2022/03/23 08:02:14;;;;;;;1999.90;999.90;;;8.90;99.90;;;;;;5077977;28;20197;-70
2022/03/23 08:04:40;;;;;;;1999.90;999.90;;;9.00;99.90;;;;;;5077492;28;20196;-70
2022/03/23 08:07:07;;;;;;;1999.90;999.90;;;9.20;99.90;;;;;;5079243;28;20564;-69
2022/03/23 08:09:32;;;;;;;1999.90;999.90;;;9.20;99.90;;;;;;5078562;28;20208;-70
2022/03/23 08:11:58;;;;;;;1999.90;999.90;;;9.30;99.90;;;;;;5078111;28;20450;-70
2022/03/23 08:14:24;;;;;;;1999.90;999.90;;;9.40;99.90;;;;;;5078451;28;20157;-70
2022/03/23 08:16:52;;;;;;;1999.90;999.90;;;9.60;99.90;;;;;;5077012;28;20400;-69
2022/03/23 08:19:22;;;;;;;1999.90;999.90;;;9.60;99.90;;;;;;5073490;28;20626;-69
2022/03/23 08:21:48;;;;;;;1999.90;999.90;;;9.70;99.90;;;;;;5073403;28;20433;-69
2022/03/23 08:24:14;;;;;;;1999.90;999.90;;;9.80;99.90;;;;;;5073085;28;20457;-69
2022/03/23 08:26:39;;;;;;;1999.90;999.90;;;9.90;99.90;;;;;;5073325;28;20921;-69
2022/03/23 08:29:05;;;;;;;1999.90;999.90;;;10.00;99.90;;;;;;5073202;28;20483;-69
2022/03/23 08:31:31;;;;;;;1999.90;999.90;;;10.20;99.90;;;;;;5073252;28;20182;-69
2022/03/23 08:33:56;;;;;;;1999.90;999.90;;;10.20;99.90;;;;;;5073185;28;20176;-69
2022/03/23 08:36:22;;;;;;;1999.90;999.90;;;10.30;99.90;;;;;;5073035;28;20196;-69
2022/03/23 08:38:48;;;;;;;1999.90;999.90;;;10.30;99.90;;;;;;5073161;28;20178;-69
2022/03/23 08:41:14;;;;;;;1999.90;999.90;;;10.40;99.90;;;;;;5073015;28;20798;-69
2022/03/23 08:43:41;;;;;;;1999.90;999.90;;;10.60;99.90;;;;;;5073124;28;20227;-69
2022/03/23 08:46:07;;;;;;;1999.90;999.90;;;10.70;99.90;;;;;;5072707;28;20420;-69
2022/03/23 08:48:34;;;;;;;1999.90;999.90;;;10.90;99.90;;;;;;5072945;28;20417;-69
2022/03/23 08:51:00;;;;;;;1999.90;999.90;;;10.90;99.90;;;;;;5072846;28;20843;-69
2022/03/23 08:53:26;;;;;;;1999.90;999.90;;;11.10;99.90;;;;;;5072838;28;20775;-69
2022/03/23 08:55:52;;;;;;;1999.90;999.90;;;11.20;99.90;;;;;;5072705;28;20405;-69
2022/03/23 08:58:18;;;;;;;1999.90;999.90;;;11.40;99.90;;;;;;5072698;28;20513;-69
2022/03/23 09:00:43;;;;;;;1999.90;999.90;;;11.50;99.90;;;;;;5071460;28;20470;-69
2022/03/23 09:03:09;;;;;;;1999.90;999.90;;;11.80;99.90;;;;;;5068949;28;20278;-69
2022/03/23 09:05:34;;;;;;;1999.90;999.90;;;11.90;99.90;;;;;;5071604;28;20178;-70
2022/03/23 09:08:01;;;;;;;1999.90;999.90;;;12.10;99.90;;;;;;5072113;28;20609;-69
2022/03/23 09:10:28;;;;;;;1999.90;999.90;;;12.10;99.90;;;;;;5071000;28;20211;-70
2022/03/23 09:12:54;;;;;;;1999.90;999.90;;;12.30;99.90;;;;;;5071910;28;20440;-70
2022/03/23 09:15:19;;;;;;;1999.90;999.90;;;12.40;99.90;;;;;;5071787;28;20429;-70
2022/03/23 09:17:46;;;;;;;1999.90;999.90;;;12.40;99.90;;;;;;5071704;28;20429;-70
2022/03/23 09:20:13;;;;;;;1999.90;999.90;;;12.60;99.90;;;;;;5072100;28;20181;-69
2022/03/23 09:22:40;;;;;;;1999.90;999.90;;;12.70;99.90;;;;;;5071609;28;20475;-70
2022/03/23 09:25:09;;;;;;;1999.90;999.90;;;12.90;99.90;;;;;;5071313;28;20484;-70
2022/03/23 09:27:39;;;;;;;1999.90;999.90;;;12.90;99.90;;;;;;5071719;28;20489;-70
2022/03/23 09:30:06;;;;;;;1999.90;999.90;;;13.20;99.90;;;;;;5072688;28;20487;-69
2022/03/23 09:32:32;;;;;;;1999.90;999.90;;;13.30;99.90;;;;;;5076839;28;20424;-70
2022/03/23 09:34:57;;;;;;;1999.90;999.90;;;13.40;99.90;;;;;;5078233;28;20413;-70
2022/03/23 09:40:08;;;;;;;1999.90;999.90;;;13.70;99.90;;;;;;5072628;28;20177;-71
2022/03/23 09:42:34;;;;;;;1999.90;999.90;;;13.80;99.90;;;;;;5071934;28;20457;-71
2022/03/23 09:45:00;;;;;;;1999.90;999.90;;;13.90;99.90;;;;;;5072306;28;20421;-72
2022/03/23 09:47:26;;;;;;;1999.90;999.90;;;14.10;99.90;;;;;;5072240;28;20896;-71
2022/03/23 09:49:52;;;;;;;1999.90;999.90;;;14.30;99.90;;;;;;5072962;28;20203;-71
2022/03/23 09:52:18;;;;;;;1999.90;999.90;;;14.30;99.90;;;;;;5071811;28;20184;-71
2022/03/23 09:54:45;;;;;;;1999.90;999.90;;;14.50;99.90;;;;;;5071169;28;20407;-71
2022/03/23 09:57:13;;;;;;;1999.90;999.90;;;14.60;99.90;;;;;;5071886;28;20510;-72
2022/03/23 09:59:39;;;;;;;1999.90;999.90;;;14.70;99.90;;;;;;5072168;28;20618;-72
2022/03/23 10:02:05;;;;;;;1999.90;999.90;;;14.80;99.90;;;;;;5057146;28;20461;-69
2022/03/23 10:04:48;;;;;;;1999.90;999.90;;;15.00;99.90;;;;;;5074693;28;20469;-69
2022/03/23 10:07:31;;;;;;;1999.90;999.90;;;14.90;99.90;;;;;;5075310;28;20194;-70
2022/03/23 10:10:08;;;;;;;1999.90;999.90;;;14.90;99.90;;;;;;5071712;28;20928;-72
2022/03/23 10:13:11;;;;;;;1999.90;999.90;;;14.70;99.90;;;;;;5071528;28;20516;-71
2022/03/23 10:16:13;;;;;;;1999.90;999.90;;;14.60;99.90;;;;;;5071503;28;20409;-72
2022/03/23 10:18:57;;;;;;;1999.90;999.90;;;14.50;93.30;;;;;;5075709;28;20832;-71
2022/03/23 10:21:25;;;;;;;1999.90;999.90;;;14.50;95.50;;;;;;5084552;28;20431;-70
2022/03/23 10:24:00;;;;;;;1999.90;999.90;;;14.80;92.10;;;;;;5078128;28;20496;-71
2022/03/23 10:26:27;;;;;;;1999.90;999.90;;;15.20;90.70;;;;;;5079121;28;20412;-71
2022/03/23 10:28:54;;;;;;;1999.90;999.90;;;15.50;88.40;;;;;;5077995;28;20464;-70
2022/03/23 10:31:24;;;;;;;1999.90;999.90;;;15.90;84.10;;;;;;5077955;28;20782;-71
2022/03/23 10:34:08;;;;;;;1999.90;999.90;;;16.20;80.50;;;;;;5077753;28;20408;-70
2022/03/23 10:36:55;;;;;;;1999.90;999.90;;;16.40;73.30;;;;;;5075835;28;20930;-70
2022/03/23 10:39:29;;;;;;;1999.90;999.90;;;16.70;76.50;;;;;;5076210;28;20405;-70
2022/03/23 10:41:59;;;;;;;1999.90;999.90;;;16.70;73.70;;;;;;5076027;28;20437;-70
2022/03/23 10:44:26;;;;;;;1999.90;999.90;;;16.80;70.90;;;;;;5076811;28;21137;-71
2022/03/23 10:46:53;;;;;;;1999.90;999.90;;;16.90;74.70;;;;;;5076187;28;20496;-71
2022/03/23 10:49:31;;;;;;;1999.90;999.90;;;16.90;75.30;;;;;;5076407;28;21059;-70
2022/03/23 10:52:07;;;;;;;1999.90;999.90;;;16.80;80.50;;;;;;5057361;28;20434;-71
2022/03/23 10:54:33;;;;;;;1999.90;999.90;;;17.00;76.10;;;;;;5074816;28;20407;-70
2022/03/23 10:56:59;;;;;;;1999.90;999.90;;;17.10;69.70;;;;;;5075514;28;20421;-71
2022/03/23 10:59:27;;;;;;;1999.90;999.90;;;17.30;68.90;;;;;;5075563;28;20552;-70
2022/03/23 11:02:03;;;;;;;1999.90;999.90;;;17.50;69.90;;;;;;5075044;28;20436;-70
2022/03/23 11:04:31;;;;;;;1999.90;999.90;;;17.40;60.60;;;;;;5075407;28;20895;-71
2022/03/23 11:07:02;;;;;;;1999.90;999.90;;;17.60;57.70;;;;;;5075543;28;20848;-70
2022/03/23 11:18:11;;;;;;;1999.90;999.90;;;18.40;56.10;;;;;;5075833;28;20423;-70
2022/03/23 11:20:43;;;;;;;1999.90;999.90;;;18.60;55.60;;;;;;5075788;28;20501;-70
2022/03/23 11:23:30;;;;;;;1999.90;999.90;;;18.70;56.80;;;;;;5074894;28;20443;-71
2022/03/23 11:26:01;;;;;;;1999.90;999.90;;;18.70;53.00;;;;;;5075606;28;20501;-69
2022/03/23 11:28:33;;;;;;;1999.90;999.90;;;18.90;51.00;;;;;;5074335;28;20412;-69
2022/03/23 11:31:05;;;;;;;1999.90;999.90;;;19.00;52.30;;;;;;5073666;28;20419;-69
2022/03/23 11:33:32;;;;;;;1999.90;999.90;;;19.00;55.40;;;;;;5073083;28;20399;-70
2022/03/23 11:35:59;;;;;;;1999.90;999.90;;;19.20;47.30;;;;;;5073617;28;20750;-70
2022/03/23 11:38:26;;;;;;;1999.90;999.90;;;19.20;50.30;;;;;;5073738;28;20454;-69
2022/03/23 11:40:53;;;;;;;1999.90;999.90;;;19.30;52.70;;;;;;5074416;28;20509;-69
2022/03/23 11:43:22;;;;;;;1999.90;999.90;;;19.40;49.20;;;;;;5074435;28;20548;-70
2022/03/23 11:45:50;;;;;;;1999.90;999.90;;;19.50;48.90;;;;;;5073925;28;20408;-70
2022/03/23 11:48:19;;;;;;;1999.90;999.90;;;19.70;48.40;;;;;;5074615;28;20422;-70
2022/03/23 11:51:05;;;;;;;1999.90;999.90;;;20.10;47.80;;;;;;5073941;28;20462;-70
2022/03/23 11:53:50;;;;;;;1999.90;999.90;;;20.90;45.90;;;;;;5073731;28;20406;-70
2022/03/23 11:56:35;;;;;;;1999.90;999.90;;;21.90;42.20;;;;;;5074233;28;20487;-70
2022/03/23 11:59:19;;;;;;;1999.90;999.90;;;23.00;41.90;;;;;;5073991;28;20408;-70
2022/03/23 12:01:45;;;;;;;1999.90;999.90;;;24.30;37.20;;;;;;5074278;28;20436;-70
2022/03/23 12:04:17;;;;;;;1999.90;999.90;;;25.20;32.00;;;;;;5074070;28;20459;-70
2022/03/23 12:06:44;;;;;;;1999.90;999.90;;;26.20;29.20;;;;;;5074958;28;20409;-70
2022/03/23 12:09:28;;;;;;;1999.90;999.90;;;27.00;25.10;;;;;;5075673;28;20465;-70
2022/03/23 12:11:54;;;;;;;1999.90;999.90;;;27.50;21.50;;;;;;5074441;28;20532;-70
2022/03/23 12:14:24;;;;;;;1999.90;999.90;;;27.80;22.00;;;;;;5073933;28;20472;-70
2022/03/23 12:16:52;;;;;;;1999.90;999.90;;;28.40;19.80;;;;;;5074541;28;20174;-70
2022/03/23 12:19:22;;;;;;;1999.90;999.90;;;28.90;19.50;;;;;;5074442;28;20473;-70
2022/03/23 12:22:06;;;;;;;1999.90;999.90;;;29.30;18.40;;;;;;5073618;28;20983;-70
2022/03/23 12:24:41;;;;;;;1999.90;999.90;;;29.80;18.00;;;;;;5073828;28;20401;-70
2022/03/23 12:27:14;;;;;;;1999.90;999.90;;;29.90;14.90;;;;;;5074600;28;20481;-70
2022/03/23 12:29:45;;;;;;;1999.90;999.90;;;30.10;15.20;;;;;;5073456;28;20817;-70
2022/03/23 12:32:12;;;;;;;1999.90;999.90;;;29.80;15.30;;;;;;5073730;28;20516;-70